sensor_id;sensor_type;location;lat;lon;timestamp;temperature;humidity
64869;DHT22;51349;52.424;10.840;2023-02-15T00:04:04;-0.10;99.90
64869;DHT22;51349;52.424;10.840;2023-02-15T00:09:05;-0.20;99.90
64869;DHT22;51349;52.424;10.840;2023-02-15T00:19:11;-0.40;99.90
64869;DHT22;51349;52.424;10.840;2023-02-15T00:24:14;-0.40;99.90
64869;DHT22;51349;52.424;10.840;2023-02-15T00:29:16;-0.50;99.90
64869;DHT22;51349;52.424;10.840;2023-02-15T00:34:23;-0.50;99.90
64869;DHT22;51349;52.424;10.840;2023-02-15T00:39:24;-0.60;99.90
64869;DHT22;51349;52.424;10.840;2023-02-15T00:44:24;-0.50;99.90
64869;DHT22;51349;52.424;10.840;2023-02-15T00:49:25;-0.60;99.90
64869;DHT22;51349;52.424;10.840;2023-02-15T00:54:25;-0.70;99.90
64869;DHT22;51349;52.424;10.840;2023-02-15T00:59:26;-0.70;99.90
64869;DHT22;51349;52.424;10.840;2023-02-15T01:04:27;-1.00;99.90
64869;DHT22;51349;52.424;10.840;2023-02-15T01:09:27;-0.90;99.90
64869;DHT22;51349;52.424;10.840;2023-02-15T01:14:28;-0.80;99.90
64869;DHT22;51349;52.424;10.840;2023-02-15T01:19:32;-0.90;99.90
64869;DHT22;51349;52.424;10.840;2023-02-15T01:24:33;-1.00;99.90
64869;DHT22;51349;52.424;10.840;2023-02-15T01:29:34;-1.20;99.90
64869;DHT22;51349;52.424;10.840;2023-02-15T01:34:34;-1.20;99.90
64869;DHT22;51349;52.424;10.840;2023-02-15T01:39:35;-1.20;99.90
64869;DHT22;51349;52.424;10.840;2023-02-15T01:44:52;-1.10;99.90
64869;DHT22;51349;52.424;10.840;2023-02-15T01:50:30;-1.10;99.90
64869;DHT22;51349;52.424;10.840;2023-02-15T01:55:36;-1.10;99.90
64869;DHT22;51349;52.424;10.840;2023-02-15T02:00:38;-1.20;99.90
64869;DHT22;51349;52.424;10.840;2023-02-15T02:05:39;-1.30;99.90
64869;DHT22;51349;52.424;10.840;2023-02-15T02:10:40;-1.30;99.90
64869;DHT22;51349;52.424;10.840;2023-02-15T02:47:34;-1.70;99.90
64869;DHT22;51349;52.424;10.840;2023-02-15T03:02:53;-1.80;99.90
64869;DHT22;51349;52.424;10.840;2023-02-15T03:07:55;-1.70;99.90
64869;DHT22;51349;52.424;10.840;2023-02-15T03:12:57;-1.60;99.90
64869;DHT22;51349;52.424;10.840;2023-02-15T03:17:59;-1.80;99.90
64869;DHT22;51349;52.424;10.840;2023-02-15T03:23:21;-1.80;99.90
64869;DHT22;51349;52.424;10.840;2023-02-15T03:28:43;-1.90;99.90
64869;DHT22;51349;52.424;10.840;2023-02-15T03:34:00;-1.90;99.90
64869;DHT22;51349;52.424;10.840;2023-02-15T03:39:18;-2.00;99.90
64869;DHT22;51349;52.424;10.840;2023-02-15T03:44:27;-2.00;99.90
64869;DHT22;51349;52.424;10.840;2023-02-15T03:54:35;-2.00;99.90
64869;DHT22;51349;52.424;10.840;2023-02-15T03:59:48;-2.00;99.90
64869;DHT22;51349;52.424;10.840;2023-02-15T04:05:08;-2.20;99.90
64869;DHT22;51349;52.424;10.840;2023-02-15T04:10:08;-2.30;99.90
64869;DHT22;51349;52.424;10.840;2023-02-15T04:15:28;-2.30;99.90
64869;DHT22;51349;52.424;10.840;2023-02-15T04:20:47;-2.30;99.90
64869;DHT22;51349;52.424;10.840;2023-02-15T04:26:07;-2.20;99.90
64869;DHT22;51349;52.424;10.840;2023-02-15T04:31:07;-2.30;99.90
64869;DHT22;51349;52.424;10.840;2023-02-15T04:36:08;-2.30;99.90
64869;DHT22;51349;52.424;10.840;2023-02-15T04:41:09;-2.20;99.90
64869;DHT22;51349;52.424;10.840;2023-02-15T04:46:10;-2.20;99.90
64869;DHT22;51349;52.424;10.840;2023-02-15T04:51:11;-2.30;99.90
64869;DHT22;51349;52.424;10.840;2023-02-15T04:56:12;-2.40;99.90
64869;DHT22;51349;52.424;10.840;2023-02-15T05:01:13;-2.50;99.90
64869;DHT22;51349;52.424;10.840;2023-02-15T05:06:13;-2.40;99.90
64869;DHT22;51349;52.424;10.840;2023-02-15T05:11:17;-2.40;99.90
64869;DHT22;51349;52.424;10.840;2023-02-15T05:16:18;-2.50;99.90
64869;DHT22;51349;52.424;10.840;2023-02-15T05:21:18;-2.50;99.90
64869;DHT22;51349;52.424;10.840;2023-02-15T05:26:21;-2.50;99.90
64869;DHT22;51349;52.424;10.840;2023-02-15T05:31:41;-2.60;99.90
64869;DHT22;51349;52.424;10.840;2023-02-15T05:36:42;-2.50;99.90
64869;DHT22;51349;52.424;10.840;2023-02-15T05:41:42;-2.50;99.90
64869;DHT22;51349;52.424;10.840;2023-02-15T05:46:43;-2.60;99.90
64869;DHT22;51349;52.424;10.840;2023-02-15T05:51:44;-2.80;99.90
64869;DHT22;51349;52.424;10.840;2023-02-15T05:56:44;-2.80;99.90
64869;DHT22;51349;52.424;10.840;2023-02-15T06:01:45;-2.80;99.90
64869;DHT22;51349;52.424;10.840;2023-02-15T06:06:45;-2.70;99.90
64869;DHT22;51349;52.424;10.840;2023-02-15T06:11:46;-2.70;99.90
64869;DHT22;51349;52.424;10.840;2023-02-15T06:16:47;-2.80;99.90
64869;DHT22;51349;52.424;10.840;2023-02-15T06:21:48;-2.80;99.90
64869;DHT22;51349;52.424;10.840;2023-02-15T06:26:48;-2.80;99.90
64869;DHT22;51349;52.424;10.840;2023-02-15T06:31:49;-2.80;99.90
64869;DHT22;51349;52.424;10.840;2023-02-15T06:36:49;-2.70;99.90
64869;DHT22;51349;52.424;10.840;2023-02-15T06:41:50;-2.70;99.90
64869;DHT22;51349;52.424;10.840;2023-02-15T06:46:51;-2.70;99.90
64869;DHT22;51349;52.424;10.840;2023-02-15T06:51:52;-2.60;99.90
64869;DHT22;51349;52.424;10.840;2023-02-15T06:56:52;-2.80;99.90
64869;DHT22;51349;52.424;10.840;2023-02-15T07:01:53;-2.80;99.90
64869;DHT22;51349;52.424;10.840;2023-02-15T07:06:53;-2.60;99.90
64869;DHT22;51349;52.424;10.840;2023-02-15T07:11:54;-2.70;99.90
64869;DHT22;51349;52.424;10.840;2023-02-15T07:17:13;-2.70;99.90
64869;DHT22;51349;52.424;10.840;2023-02-15T07:22:14;-2.70;99.90
64869;DHT22;51349;52.424;10.840;2023-02-15T07:27:15;-2.70;99.90
64869;DHT22;51349;52.424;10.840;2023-02-15T07:32:16;-2.60;99.90
64869;DHT22;51349;52.424;10.840;2023-02-15T07:37:16;-2.50;99.90
64869;DHT22;51349;52.424;10.840;2023-02-15T07:42:17;-2.40;99.90
64869;DHT22;51349;52.424;10.840;2023-02-15T07:47:20;-2.30;99.90
64869;DHT22;51349;52.424;10.840;2023-02-15T07:52:20;-2.10;99.90
64869;DHT22;51349;52.424;10.840;2023-02-15T07:57:21;-1.80;99.90
64869;DHT22;51349;52.424;10.840;2023-02-15T08:02:21;-1.40;99.90
64869;DHT22;51349;52.424;10.840;2023-02-15T08:07:22;-1.10;99.90
64869;DHT22;51349;52.424;10.840;2023-02-15T08:12:23;-0.70;99.90
64869;DHT22;51349;52.424;10.840;2023-02-15T08:17:25;-0.40;99.90
64869;DHT22;51349;52.424;10.840;2023-02-15T08:22:26;0.10;99.90
64869;DHT22;51349;52.424;10.840;2023-02-15T08:27:27;0.70;99.90
64869;DHT22;51349;52.424;10.840;2023-02-15T08:32:27;1.30;99.90
64869;DHT22;51349;52.424;10.840;2023-02-15T08:37:28;2.10;99.90
64869;DHT22;51349;52.424;10.840;2023-02-15T08:42:29;2.30;99.90
64869;DHT22;51349;52.424;10.840;2023-02-15T08:47:30;2.00;99.90
64869;DHT22;51349;52.424;10.840;2023-02-15T08:52:31;2.80;99.90
64869;DHT22;51349;52.424;10.840;2023-02-15T08:57:31;2.70;99.90
64869;DHT22;51349;52.424;10.840;2023-02-15T09:02:32;3.50;99.90
64869;DHT22;51349;52.424;10.840;2023-02-15T09:07:32;3.30;99.90
64869;DHT22;51349;52.424;10.840;2023-02-15T09:12:33;3.90;99.90
64869;DHT22;51349;52.424;10.840;2023-02-15T09:17:34;4.30;99.90
64869;DHT22;51349;52.424;10.840;2023-02-15T09:22:34;4.10;99.90
64869;DHT22;51349;52.424;10.840;2023-02-15T09:27:35;3.40;99.90
64869;DHT22;51349;52.424;10.840;2023-02-15T09:32:36;4.00;99.90
64869;DHT22;51349;52.424;10.840;2023-02-15T09:37:37;5.70;99.90
64869;DHT22;51349;52.424;10.840;2023-02-15T10:52:09;15.20;99.90
64869;DHT22;51349;52.424;10.840;2023-02-15T11:02:49;17.60;99.90
64869;DHT22;51349;52.424;10.840;2023-02-15T11:07:56;18.10;99.90
64869;DHT22;51349;52.424;10.840;2023-02-15T11:13:03;19.20;98.10
64869;DHT22;51349;52.424;10.840;2023-02-15T11:18:23;19.60;96.10
64869;DHT22;51349;52.424;10.840;2023-02-15T11:23:26;20.50;94.70
64869;DHT22;51349;52.424;10.840;2023-02-15T11:33:35;21.40;90.90
64869;DHT22;51349;52.424;10.840;2023-02-15T11:38:36;21.90;89.40
64869;DHT22;51349;52.424;10.840;2023-02-15T11:43:41;22.20;85.80
64869;DHT22;51349;52.424;10.840;2023-02-15T11:48:43;22.90;84.10
64869;DHT22;51349;52.424;10.840;2023-02-15T11:53:45;22.30;83.10
64869;DHT22;51349;52.424;10.840;2023-02-15T11:58:56;22.80;79.80
64869;DHT22;51349;52.424;10.840;2023-02-15T12:04:17;22.60;77.60
64869;DHT22;51349;52.424;10.840;2023-02-15T12:09:30;22.00;74.70
64869;DHT22;51349;52.424;10.840;2023-02-15T12:14:47;21.50;78.60
64869;DHT22;51349;52.424;10.840;2023-02-15T12:19:49;21.40;77.90
64869;DHT22;51349;52.424;10.840;2023-02-15T12:24:55;22.70;75.70
64869;DHT22;51349;52.424;10.840;2023-02-15T12:29:59;22.90;72.40
64869;DHT22;51349;52.424;10.840;2023-02-15T12:35:13;21.20;73.20
64869;DHT22;51349;52.424;10.840;2023-02-15T12:40:27;23.40;73.00
64869;DHT22;51349;52.424;10.840;2023-02-15T12:45:30;23.60;66.70
64869;DHT22;51349;52.424;10.840;2023-02-15T12:50:31;24.60;70.40
64869;DHT22;51349;52.424;10.840;2023-02-15T12:55:33;24.80;66.30
64869;DHT22;51349;52.424;10.840;2023-02-15T13:00:34;22.90;63.80
64869;DHT22;51349;52.424;10.840;2023-02-15T13:05:44;25.40;64.90
64869;DHT22;51349;52.424;10.840;2023-02-15T13:16:12;23.40;59.60
64869;DHT22;51349;52.424;10.840;2023-02-15T13:21:35;21.90;58.60
64869;DHT22;51349;52.424;10.840;2023-02-15T13:26:37;20.90;59.60
64869;DHT22;51349;52.424;10.840;2023-02-15T13:31:38;20.30;59.80
64869;DHT22;51349;52.424;10.840;2023-02-15T13:37:06;19.90;60.00
64869;DHT22;51349;52.424;10.840;2023-02-15T13:58:29;14.90;69.00
64869;DHT22;51349;52.424;10.840;2023-02-15T14:08:54;14.20;73.90
64869;DHT22;51349;52.424;10.840;2023-02-15T14:19:28;13.40;77.50
64869;DHT22;51349;52.424;10.840;2023-02-15T14:24:47;13.90;75.90
64869;DHT22;51349;52.424;10.840;2023-02-15T14:30:09;13.50;78.60
64869;DHT22;51349;52.424;10.840;2023-02-15T14:41:07;12.80;80.70
64869;DHT22;51349;52.424;10.840;2023-02-15T14:51:55;11.80;85.80
64869;DHT22;51349;52.424;10.840;2023-02-15T15:07:22;11.30;89.10
64869;DHT22;51349;52.424;10.840;2023-02-15T15:22:35;10.50;92.30
64869;DHT22;51349;52.424;10.840;2023-02-15T15:27:50;10.60;92.20
64869;DHT22;51349;52.424;10.840;2023-02-15T15:32:59;10.20;92.80
64869;DHT22;51349;52.424;10.840;2023-02-15T15:43:19;9.80;95.20
64869;DHT22;51349;52.424;10.840;2023-02-15T15:48:35;9.50;96.10
64869;DHT22;51349;52.424;10.840;2023-02-15T15:53:44;9.30;96.80
64869;DHT22;51349;52.424;10.840;2023-02-15T15:58:54;9.10;97.40
64869;DHT22;51349;52.424;10.840;2023-02-15T16:03:59;8.80;98.40
64869;DHT22;51349;52.424;10.840;2023-02-15T16:09:16;8.50;99.60
64869;DHT22;51349;52.424;10.840;2023-02-15T16:14:31;8.30;99.90
64869;DHT22;51349;52.424;10.840;2023-02-15T16:19:36;7.90;99.90
64869;DHT22;51349;52.424;10.840;2023-02-15T16:29:41;7.20;99.90
64869;DHT22;51349;52.424;10.840;2023-02-15T16:34:52;6.90;99.90
64869;DHT22;51349;52.424;10.840;2023-02-15T16:39:56;6.60;99.90
64869;DHT22;51349;52.424;10.840;2023-02-15T16:45:15;6.10;99.90
64869;DHT22;51349;52.424;10.840;2023-02-15T16:50:37;5.90;99.90
64869;DHT22;51349;52.424;10.840;2023-02-15T16:55:40;5.70;99.90
64869;DHT22;51349;52.424;10.840;2023-02-15T17:00:42;5.40;99.90
64869;DHT22;51349;52.424;10.840;2023-02-15T17:21:16;4.60;99.90
64869;DHT22;51349;52.424;10.840;2023-02-15T17:31:20;4.20;99.90
64869;DHT22;51349;52.424;10.840;2023-02-15T17:36:27;4.10;99.90
64869;DHT22;51349;52.424;10.840;2023-02-15T17:41:34;3.90;99.90
64869;DHT22;51349;52.424;10.840;2023-02-15T17:46:36;3.70;99.90
64869;DHT22;51349;52.424;10.840;2023-02-15T17:51:37;3.60;99.90
64869;DHT22;51349;52.424;10.840;2023-02-15T17:56:38;3.40;99.90
64869;DHT22;51349;52.424;10.840;2023-02-15T18:01:45;3.30;99.90
64869;DHT22;51349;52.424;10.840;2023-02-15T18:07:08;3.30;99.90
64869;DHT22;51349;52.424;10.840;2023-02-15T18:12:33;3.10;99.90
64869;DHT22;51349;52.424;10.840;2023-02-15T18:17:39;3.00;99.90
64869;DHT22;51349;52.424;10.840;2023-02-15T18:22:41;2.90;99.90
64869;DHT22;51349;52.424;10.840;2023-02-15T18:27:43;2.80;99.90
64869;DHT22;51349;52.424;10.840;2023-02-15T18:32:44;2.90;99.90
64869;DHT22;51349;52.424;10.840;2023-02-15T18:37:45;2.70;99.90
64869;DHT22;51349;52.424;10.840;2023-02-15T18:42:47;2.50;99.90
64869;DHT22;51349;52.424;10.840;2023-02-15T18:47:48;2.40;99.90
64869;DHT22;51349;52.424;10.840;2023-02-15T18:52:49;2.40;99.90
64869;DHT22;51349;52.424;10.840;2023-02-15T18:57:53;2.40;99.90
64869;DHT22;51349;52.424;10.840;2023-02-15T19:02:54;2.40;99.90
64869;DHT22;51349;52.424;10.840;2023-02-15T19:07:56;2.10;99.90
64869;DHT22;51349;52.424;10.840;2023-02-15T19:12:58;2.00;99.90
64869;DHT22;51349;52.424;10.840;2023-02-15T19:17:58;1.90;99.90
64869;DHT22;51349;52.424;10.840;2023-02-15T19:23:00;1.70;99.90
64869;DHT22;51349;52.424;10.840;2023-02-15T19:28:10;1.70;99.90
64869;DHT22;51349;52.424;10.840;2023-02-15T19:33:15;1.60;99.90
64869;DHT22;51349;52.424;10.840;2023-02-15T19:38:19;1.50;99.90
64869;DHT22;51349;52.424;10.840;2023-02-15T19:43:22;1.40;99.90
64869;DHT22;51349;52.424;10.840;2023-02-15T19:48:27;1.30;99.90
64869;DHT22;51349;52.424;10.840;2023-02-15T19:53:28;1.40;99.90
64869;DHT22;51349;52.424;10.840;2023-02-15T19:58:28;1.50;99.90
64869;DHT22;51349;52.424;10.840;2023-02-15T20:03:29;1.50;99.90
64869;DHT22;51349;52.424;10.840;2023-02-15T20:08:30;1.30;99.90
64869;DHT22;51349;52.424;10.840;2023-02-15T20:13:31;1.30;99.90
64869;DHT22;51349;52.424;10.840;2023-02-15T20:18:31;1.10;99.90
64869;DHT22;51349;52.424;10.840;2023-02-15T20:23:35;1.10;99.90
64869;DHT22;51349;52.424;10.840;2023-02-15T20:28:36;1.00;99.90
64869;DHT22;51349;52.424;10.840;2023-02-15T20:33:38;0.90;99.90
64869;DHT22;51349;52.424;10.840;2023-02-15T20:38:39;0.90;99.90
64869;DHT22;51349;52.424;10.840;2023-02-15T20:43:39;0.80;99.90
64869;DHT22;51349;52.424;10.840;2023-02-15T20:48:40;0.70;99.90
64869;DHT22;51349;52.424;10.840;2023-02-15T20:53:41;0.70;99.90
64869;DHT22;51349;52.424;10.840;2023-02-15T20:58:41;0.70;99.90
64869;DHT22;51349;52.424;10.840;2023-02-15T21:03:42;0.50;99.90
64869;DHT22;51349;52.424;10.840;2023-02-15T21:08:43;0.40;99.90
64869;DHT22;51349;52.424;10.840;2023-02-15T21:13:44;0.30;99.90
64869;DHT22;51349;52.424;10.840;2023-02-15T21:18:45;0.40;99.90
64869;DHT22;51349;52.424;10.840;2023-02-15T21:23:46;0.30;99.90
64869;DHT22;51349;52.424;10.840;2023-02-15T21:28:48;0.30;99.90
64869;DHT22;51349;52.424;10.840;2023-02-15T21:33:49;0.30;99.90
64869;DHT22;51349;52.424;10.840;2023-02-15T21:38:50;0.10;99.90
64869;DHT22;51349;52.424;10.840;2023-02-15T21:43:53;0.10;99.90
64869;DHT22;51349;52.424;10.840;2023-02-15T21:49:12;0.00;99.90
64869;DHT22;51349;52.424;10.840;2023-02-15T21:54:14;0.10;99.90
64869;DHT22;51349;52.424;10.840;2023-02-15T21:59:16;0.10;99.90
64869;DHT22;51349;52.424;10.840;2023-02-15T22:04:23;0.00;99.90
64869;DHT22;51349;52.424;10.840;2023-02-15T22:09:26;-0.10;99.90
64869;DHT22;51349;52.424;10.840;2023-02-15T22:14:38;-0.10;99.90
64869;DHT22;51349;52.424;10.840;2023-02-15T22:19:39;-0.10;99.90
64869;DHT22;51349;52.424;10.840;2023-02-15T22:24:40;-0.10;99.90
64869;DHT22;51349;52.424;10.840;2023-02-15T22:29:41;-0.10;99.90
64869;DHT22;51349;52.424;10.840;2023-02-15T22:34:42;-0.10;99.90
64869;DHT22;51349;52.424;10.840;2023-02-15T22:39:42;-0.10;99.90
64869;DHT22;51349;52.424;10.840;2023-02-15T22:44:43;0.00;99.90
64869;DHT22;51349;52.424;10.840;2023-02-15T22:49:43;0.10;99.90
64869;DHT22;51349;52.424;10.840;2023-02-15T22:54:44;0.30;99.90
64869;DHT22;51349;52.424;10.840;2023-02-15T22:59:45;0.70;99.90
64869;DHT22;51349;52.424;10.840;2023-02-15T23:04:46;1.00;99.90
64869;DHT22;51349;52.424;10.840;2023-02-15T23:09:47;1.30;99.90
64869;DHT22;51349;52.424;10.840;2023-02-15T23:14:48;1.40;99.90
64869;DHT22;51349;52.424;10.840;2023-02-15T23:19:51;1.60;99.90
64869;DHT22;51349;52.424;10.840;2023-02-15T23:24:52;1.80;99.90
64869;DHT22;51349;52.424;10.840;2023-02-15T23:29:53;1.70;99.90
64869;DHT22;51349;52.424;10.840;2023-02-15T23:34:53;1.70;99.90
64869;DHT22;51349;52.424;10.840;2023-02-15T23:39:54;1.40;99.90
64869;DHT22;51349;52.424;10.840;2023-02-15T23:45:21;1.90;99.90
64869;DHT22;51349;52.424;10.840;2023-02-15T23:50:25;2.20;99.90
64869;DHT22;51349;52.424;10.840;2023-02-15T23:55:37;2.20;99.90
